sensor_id;sensor_type;location;lat;lon;timestamp;temperature;humidity
37594;DHT22;23441;50.856;6.076;2024-02-26T00:02:16;5.60;99.90
37594;DHT22;23441;50.856;6.076;2024-02-26T00:05:06;5.60;99.90
37594;DHT22;23441;50.856;6.076;2024-02-26T00:07:52;5.50;99.90
37594;DHT22;23441;50.856;6.076;2024-02-26T00:10:38;5.50;99.90
37594;DHT22;23441;50.856;6.076;2024-02-26T00:13:24;5.50;99.90
37594;DHT22;23441;50.856;6.076;2024-02-26T00:16:10;5.50;99.90
37594;DHT22;23441;50.856;6.076;2024-02-26T00:18:56;5.50;99.90
37594;DHT22;23441;50.856;6.076;2024-02-26T00:21:42;5.50;99.90
37594;DHT22;23441;50.856;6.076;2024-02-26T00:24:28;5.40;99.90
37594;DHT22;23441;50.856;6.076;2024-02-26T00:27:14;5.40;99.90
37594;DHT22;23441;50.856;6.076;2024-02-26T00:30:00;5.40;99.90
37594;DHT22;23441;50.856;6.076;2024-02-26T00:32:45;5.40;99.90
37594;DHT22;23441;50.856;6.076;2024-02-26T00:35:31;5.40;99.90
37594;DHT22;23441;50.856;6.076;2024-02-26T00:38:17;5.40;99.90
37594;DHT22;23441;50.856;6.076;2024-02-26T00:41:03;5.40;99.90
37594;DHT22;23441;50.856;6.076;2024-02-26T00:43:49;5.40;99.90
37594;DHT22;23441;50.856;6.076;2024-02-26T00:46:35;5.40;99.90
37594;DHT22;23441;50.856;6.076;2024-02-26T00:49:21;5.40;99.90
37594;DHT22;23441;50.856;6.076;2024-02-26T00:52:07;5.40;99.90
37594;DHT22;23441;50.856;6.076;2024-02-26T00:54:53;5.40;99.90
37594;DHT22;23441;50.856;6.076;2024-02-26T00:57:39;5.40;99.90
37594;DHT22;23441;50.856;6.076;2024-02-26T01:00:26;5.40;99.90
37594;DHT22;23441;50.856;6.076;2024-02-26T01:03:13;5.50;99.90
37594;DHT22;23441;50.856;6.076;2024-02-26T01:05:59;5.40;99.90
37594;DHT22;23441;50.856;6.076;2024-02-26T01:08:44;5.50;99.90
37594;DHT22;23441;50.856;6.076;2024-02-26T01:11:30;5.50;99.90
37594;DHT22;23441;50.856;6.076;2024-02-26T01:14:16;5.50;99.90
37594;DHT22;23441;50.856;6.076;2024-02-26T01:17:02;5.50;99.90
37594;DHT22;23441;50.856;6.076;2024-02-26T01:19:48;5.50;99.90
37594;DHT22;23441;50.856;6.076;2024-02-26T01:22:35;5.50;99.90
37594;DHT22;23441;50.856;6.076;2024-02-26T01:25:21;5.50;99.90
37594;DHT22;23441;50.856;6.076;2024-02-26T01:28:07;5.60;99.90
37594;DHT22;23441;50.856;6.076;2024-02-26T01:30:53;5.50;99.90
37594;DHT22;23441;50.856;6.076;2024-02-26T01:33:39;5.50;99.90
37594;DHT22;23441;50.856;6.076;2024-02-26T01:36:25;5.50;99.90
37594;DHT22;23441;50.856;6.076;2024-02-26T01:39:11;5.50;99.90
37594;DHT22;23441;50.856;6.076;2024-02-26T01:41:58;5.50;99.90
37594;DHT22;23441;50.856;6.076;2024-02-26T01:44:44;5.50;99.90
37594;DHT22;23441;50.856;6.076;2024-02-26T01:47:30;5.60;99.90
37594;DHT22;23441;50.856;6.076;2024-02-26T01:50:17;5.50;99.90
37594;DHT22;23441;50.856;6.076;2024-02-26T01:53:04;5.60;99.90
37594;DHT22;23441;50.856;6.076;2024-02-26T01:55:50;5.50;99.90
37594;DHT22;23441;50.856;6.076;2024-02-26T01:58:36;5.50;99.90
37594;DHT22;23441;50.856;6.076;2024-02-26T02:01:25;5.50;99.90
37594;DHT22;23441;50.856;6.076;2024-02-26T02:04:12;5.50;99.90
37594;DHT22;23441;50.856;6.076;2024-02-26T02:07:00;5.60;99.90
37594;DHT22;23441;50.856;6.076;2024-02-26T02:09:46;5.60;99.90
37594;DHT22;23441;50.856;6.076;2024-02-26T02:12:32;5.60;99.90
37594;DHT22;23441;50.856;6.076;2024-02-26T02:15:20;5.60;99.90
37594;DHT22;23441;50.856;6.076;2024-02-26T02:18:06;5.60;99.90
37594;DHT22;23441;50.856;6.076;2024-02-26T02:20:53;5.50;99.90
37594;DHT22;23441;50.856;6.076;2024-02-26T02:23:39;5.50;99.90
37594;DHT22;23441;50.856;6.076;2024-02-26T02:26:26;5.50;99.90
37594;DHT22;23441;50.856;6.076;2024-02-26T02:29:13;5.60;99.90
37594;DHT22;23441;50.856;6.076;2024-02-26T02:32:01;5.50;99.90
37594;DHT22;23441;50.856;6.076;2024-02-26T02:34:47;5.50;99.90
37594;DHT22;23441;50.856;6.076;2024-02-26T02:37:34;5.50;99.90
37594;DHT22;23441;50.856;6.076;2024-02-26T02:40:20;5.50;99.90
37594;DHT22;23441;50.856;6.076;2024-02-26T02:43:06;5.50;99.90
37594;DHT22;23441;50.856;6.076;2024-02-26T02:45:52;5.50;99.90
37594;DHT22;23441;50.856;6.076;2024-02-26T02:48:38;5.50;99.90
37594;DHT22;23441;50.856;6.076;2024-02-26T02:51:24;5.50;99.90
37594;DHT22;23441;50.856;6.076;2024-02-26T02:54:10;5.50;99.90
37594;DHT22;23441;50.856;6.076;2024-02-26T02:56:56;5.50;99.90
37594;DHT22;23441;50.856;6.076;2024-02-26T02:59:41;5.50;99.90
37594;DHT22;23441;50.856;6.076;2024-02-26T03:02:27;5.50;99.90
37594;DHT22;23441;50.856;6.076;2024-02-26T03:05:15;5.50;99.90
37594;DHT22;23441;50.856;6.076;2024-02-26T03:08:01;5.50;99.90
37594;DHT22;23441;50.856;6.076;2024-02-26T03:10:47;5.50;99.90
37594;DHT22;23441;50.856;6.076;2024-02-26T03:13:33;5.50;99.90
37594;DHT22;23441;50.856;6.076;2024-02-26T03:16:19;5.50;99.90
37594;DHT22;23441;50.856;6.076;2024-02-26T03:19:05;5.50;99.90
37594;DHT22;23441;50.856;6.076;2024-02-26T03:21:51;5.50;99.90
37594;DHT22;23441;50.856;6.076;2024-02-26T03:24:37;5.50;99.90
37594;DHT22;23441;50.856;6.076;2024-02-26T03:27:22;5.50;99.90
37594;DHT22;23441;50.856;6.076;2024-02-26T03:30:10;5.50;99.90
37594;DHT22;23441;50.856;6.076;2024-02-26T03:32:56;5.50;99.90
37594;DHT22;23441;50.856;6.076;2024-02-26T03:35:42;5.50;99.90
37594;DHT22;23441;50.856;6.076;2024-02-26T03:38:29;5.50;99.90
37594;DHT22;23441;50.856;6.076;2024-02-26T03:41:15;5.50;99.90
37594;DHT22;23441;50.856;6.076;2024-02-26T03:44:01;5.50;99.90
37594;DHT22;23441;50.856;6.076;2024-02-26T03:46:47;5.50;99.90
37594;DHT22;23441;50.856;6.076;2024-02-26T03:49:33;5.50;99.90
37594;DHT22;23441;50.856;6.076;2024-02-26T03:52:19;5.50;99.90
37594;DHT22;23441;50.856;6.076;2024-02-26T03:55:05;5.50;99.90
37594;DHT22;23441;50.856;6.076;2024-02-26T03:57:54;5.50;99.90
37594;DHT22;23441;50.856;6.076;2024-02-26T04:00:40;5.50;99.90
37594;DHT22;23441;50.856;6.076;2024-02-26T04:03:26;5.50;99.90
37594;DHT22;23441;50.856;6.076;2024-02-26T04:06:12;5.50;99.90
37594;DHT22;23441;50.856;6.076;2024-02-26T04:09:00;5.50;99.90
37594;DHT22;23441;50.856;6.076;2024-02-26T04:11:49;5.50;99.90
37594;DHT22;23441;50.856;6.076;2024-02-26T04:14:35;5.50;99.90
37594;DHT22;23441;50.856;6.076;2024-02-26T04:17:21;5.40;99.90
37594;DHT22;23441;50.856;6.076;2024-02-26T04:20:08;5.40;99.90
37594;DHT22;23441;50.856;6.076;2024-02-26T04:22:58;5.40;99.90
37594;DHT22;23441;50.856;6.076;2024-02-26T04:25:44;5.40;99.90
37594;DHT22;23441;50.856;6.076;2024-02-26T04:28:30;5.40;99.90
37594;DHT22;23441;50.856;6.076;2024-02-26T04:31:16;5.40;99.90
37594;DHT22;23441;50.856;6.076;2024-02-26T04:34:02;5.40;99.90
37594;DHT22;23441;50.856;6.076;2024-02-26T04:36:48;5.40;99.90
37594;DHT22;23441;50.856;6.076;2024-02-26T04:39:35;5.40;99.90
37594;DHT22;23441;50.856;6.076;2024-02-26T04:42:21;5.30;99.90
37594;DHT22;23441;50.856;6.076;2024-02-26T04:45:07;5.30;99.90
37594;DHT22;23441;50.856;6.076;2024-02-26T04:47:54;5.30;99.90
37594;DHT22;23441;50.856;6.076;2024-02-26T04:50:41;5.30;99.90
37594;DHT22;23441;50.856;6.076;2024-02-26T04:53:27;5.30;99.90
37594;DHT22;23441;50.856;6.076;2024-02-26T04:56:13;5.30;99.90
37594;DHT22;23441;50.856;6.076;2024-02-26T04:58:59;5.30;99.90
37594;DHT22;23441;50.856;6.076;2024-02-26T05:01:44;5.30;99.90
37594;DHT22;23441;50.856;6.076;2024-02-26T05:04:30;5.30;99.90
37594;DHT22;23441;50.856;6.076;2024-02-26T05:07:16;5.30;99.90
37594;DHT22;23441;50.856;6.076;2024-02-26T05:10:06;5.30;99.90
37594;DHT22;23441;50.856;6.076;2024-02-26T05:12:52;5.30;99.90
37594;DHT22;23441;50.856;6.076;2024-02-26T05:15:37;5.30;99.90
37594;DHT22;23441;50.856;6.076;2024-02-26T05:18:24;5.30;99.90
37594;DHT22;23441;50.856;6.076;2024-02-26T05:21:10;5.30;99.90
37594;DHT22;23441;50.856;6.076;2024-02-26T05:23:56;5.30;99.90
37594;DHT22;23441;50.856;6.076;2024-02-26T05:26:41;5.30;99.90
37594;DHT22;23441;50.856;6.076;2024-02-26T05:29:27;5.30;99.90
37594;DHT22;23441;50.856;6.076;2024-02-26T05:32:13;5.40;99.90
37594;DHT22;23441;50.856;6.076;2024-02-26T05:34:59;5.30;99.90
37594;DHT22;23441;50.856;6.076;2024-02-26T05:37:45;5.30;99.90
37594;DHT22;23441;50.856;6.076;2024-02-26T05:40:31;5.40;99.90
37594;DHT22;23441;50.856;6.076;2024-02-26T05:43:17;5.30;99.90
37594;DHT22;23441;50.856;6.076;2024-02-26T05:46:03;5.30;99.90
37594;DHT22;23441;50.856;6.076;2024-02-26T05:48:51;5.30;99.90
37594;DHT22;23441;50.856;6.076;2024-02-26T05:51:37;5.20;99.90
37594;DHT22;23441;50.856;6.076;2024-02-26T05:54:23;5.30;99.90
37594;DHT22;23441;50.856;6.076;2024-02-26T05:57:09;5.30;99.90
37594;DHT22;23441;50.856;6.076;2024-02-26T05:59:55;5.30;99.90
37594;DHT22;23441;50.856;6.076;2024-02-26T06:02:41;5.30;99.90
37594;DHT22;23441;50.856;6.076;2024-02-26T06:05:27;5.30;99.90
37594;DHT22;23441;50.856;6.076;2024-02-26T06:08:13;5.30;99.90
37594;DHT22;23441;50.856;6.076;2024-02-26T06:10:59;5.30;99.90
37594;DHT22;23441;50.856;6.076;2024-02-26T06:13:45;5.30;99.90
37594;DHT22;23441;50.856;6.076;2024-02-26T06:16:31;5.30;99.90
37594;DHT22;23441;50.856;6.076;2024-02-26T06:19:17;5.30;99.90
37594;DHT22;23441;50.856;6.076;2024-02-26T06:22:03;5.30;99.90
37594;DHT22;23441;50.856;6.076;2024-02-26T06:24:49;5.30;99.90
37594;DHT22;23441;50.856;6.076;2024-02-26T06:27:35;5.30;99.90
37594;DHT22;23441;50.856;6.076;2024-02-26T06:30:21;5.30;99.90
37594;DHT22;23441;50.856;6.076;2024-02-26T06:33:07;5.30;99.90
37594;DHT22;23441;50.856;6.076;2024-02-26T06:35:53;5.30;99.90
37594;DHT22;23441;50.856;6.076;2024-02-26T06:38:39;5.30;99.90
37594;DHT22;23441;50.856;6.076;2024-02-26T06:41:25;5.30;99.90
37594;DHT22;23441;50.856;6.076;2024-02-26T06:44:13;5.30;99.90
37594;DHT22;23441;50.856;6.076;2024-02-26T06:46:59;5.30;99.90
37594;DHT22;23441;50.856;6.076;2024-02-26T06:49:46;5.30;99.90
37594;DHT22;23441;50.856;6.076;2024-02-26T06:52:31;5.30;99.90
37594;DHT22;23441;50.856;6.076;2024-02-26T06:55:17;5.30;99.90
37594;DHT22;23441;50.856;6.076;2024-02-26T06:58:03;5.30;99.90
37594;DHT22;23441;50.856;6.076;2024-02-26T07:00:49;5.30;99.90
37594;DHT22;23441;50.856;6.076;2024-02-26T07:03:35;5.30;99.90
37594;DHT22;23441;50.856;6.076;2024-02-26T07:06:21;5.30;99.90
37594;DHT22;23441;50.856;6.076;2024-02-26T07:09:07;5.30;99.90
37594;DHT22;23441;50.856;6.076;2024-02-26T07:11:53;5.40;99.90
37594;DHT22;23441;50.856;6.076;2024-02-26T07:14:39;5.30;99.90
37594;DHT22;23441;50.856;6.076;2024-02-26T07:17:25;5.40;99.90
37594;DHT22;23441;50.856;6.076;2024-02-26T07:20:11;5.40;99.90
37594;DHT22;23441;50.856;6.076;2024-02-26T07:22:57;5.40;99.90
37594;DHT22;23441;50.856;6.076;2024-02-26T07:25:43;5.40;99.90
37594;DHT22;23441;50.856;6.076;2024-02-26T07:28:30;5.40;99.90
37594;DHT22;23441;50.856;6.076;2024-02-26T07:31:17;5.40;99.90
37594;DHT22;23441;50.856;6.076;2024-02-26T07:34:03;5.40;99.90
37594;DHT22;23441;50.856;6.076;2024-02-26T07:36:49;5.40;99.90
37594;DHT22;23441;50.856;6.076;2024-02-26T07:39:34;5.40;99.90
37594;DHT22;23441;50.856;6.076;2024-02-26T07:42:20;5.40;99.90
37594;DHT22;23441;50.856;6.076;2024-02-26T07:45:06;5.50;99.90
37594;DHT22;23441;50.856;6.076;2024-02-26T07:47:52;5.50;99.90
37594;DHT22;23441;50.856;6.076;2024-02-26T07:50:38;5.40;99.90
37594;DHT22;23441;50.856;6.076;2024-02-26T07:53:26;5.50;99.90
37594;DHT22;23441;50.856;6.076;2024-02-26T07:56:12;5.50;99.90
37594;DHT22;23441;50.856;6.076;2024-02-26T07:58:58;5.50;99.90
37594;DHT22;23441;50.856;6.076;2024-02-26T08:01:43;5.40;99.90
37594;DHT22;23441;50.856;6.076;2024-02-26T08:04:30;5.40;99.90
37594;DHT22;23441;50.856;6.076;2024-02-26T08:07:16;5.40;99.90
37594;DHT22;23441;50.856;6.076;2024-02-26T08:10:03;5.50;99.90
37594;DHT22;23441;50.856;6.076;2024-02-26T08:12:49;5.50;99.90
37594;DHT22;23441;50.856;6.076;2024-02-26T08:15:35;5.50;99.90
37594;DHT22;23441;50.856;6.076;2024-02-26T08:18:23;5.50;99.90
37594;DHT22;23441;50.856;6.076;2024-02-26T08:21:10;5.50;99.90
37594;DHT22;23441;50.856;6.076;2024-02-26T08:23:56;5.50;99.90
37594;DHT22;23441;50.856;6.076;2024-02-26T08:26:42;5.60;99.90
37594;DHT22;23441;50.856;6.076;2024-02-26T08:29:28;5.50;99.90
37594;DHT22;23441;50.856;6.076;2024-02-26T08:32:14;5.50;99.90
37594;DHT22;23441;50.856;6.076;2024-02-26T08:35:00;5.60;99.90
37594;DHT22;23441;50.856;6.076;2024-02-26T08:37:46;5.60;99.90
37594;DHT22;23441;50.856;6.076;2024-02-26T08:40:33;5.60;99.90
37594;DHT22;23441;50.856;6.076;2024-02-26T08:43:18;5.60;99.90
37594;DHT22;23441;50.856;6.076;2024-02-26T08:46:08;5.60;99.90
37594;DHT22;23441;50.856;6.076;2024-02-26T08:48:55;5.60;99.90
37594;DHT22;23441;50.856;6.076;2024-02-26T08:51:42;5.60;99.90
37594;DHT22;23441;50.856;6.076;2024-02-26T08:54:29;5.60;99.90
37594;DHT22;23441;50.856;6.076;2024-02-26T08:57:15;5.60;99.90
37594;DHT22;23441;50.856;6.076;2024-02-26T09:00:01;5.60;99.90
37594;DHT22;23441;50.856;6.076;2024-02-26T09:02:47;5.70;99.90
37594;DHT22;23441;50.856;6.076;2024-02-26T09:05:34;5.60;99.90
37594;DHT22;23441;50.856;6.076;2024-02-26T09:08:20;5.60;99.90
37594;DHT22;23441;50.856;6.076;2024-02-26T09:11:07;5.70;99.90
37594;DHT22;23441;50.856;6.076;2024-02-26T09:13:56;5.70;99.90
37594;DHT22;23441;50.856;6.076;2024-02-26T09:16:41;5.80;99.90
37594;DHT22;23441;50.856;6.076;2024-02-26T09:19:27;5.80;99.90
37594;DHT22;23441;50.856;6.076;2024-02-26T09:22:13;5.90;99.90
37594;DHT22;23441;50.856;6.076;2024-02-26T09:24:59;5.80;99.90
37594;DHT22;23441;50.856;6.076;2024-02-26T09:27:46;5.80;99.90
37594;DHT22;23441;50.856;6.076;2024-02-26T09:30:32;5.70;99.90
37594;DHT22;23441;50.856;6.076;2024-02-26T09:33:18;5.70;99.90
37594;DHT22;23441;50.856;6.076;2024-02-26T09:36:04;5.80;99.90
37594;DHT22;23441;50.856;6.076;2024-02-26T09:38:51;5.80;99.90
37594;DHT22;23441;50.856;6.076;2024-02-26T09:41:37;5.80;99.90
37594;DHT22;23441;50.856;6.076;2024-02-26T09:44:24;5.70;99.90
37594;DHT22;23441;50.856;6.076;2024-02-26T09:47:11;5.80;99.90
37594;DHT22;23441;50.856;6.076;2024-02-26T09:50:00;5.70;99.90
37594;DHT22;23441;50.856;6.076;2024-02-26T09:52:48;5.70;99.90
37594;DHT22;23441;50.856;6.076;2024-02-26T09:55:35;5.80;99.90
37594;DHT22;23441;50.856;6.076;2024-02-26T09:58:21;5.80;99.90
37594;DHT22;23441;50.856;6.076;2024-02-26T10:01:18;5.70;99.90
37594;DHT22;23441;50.856;6.076;2024-02-26T10:04:04;5.70;99.90
37594;DHT22;23441;50.856;6.076;2024-02-26T10:06:51;5.60;99.90
37594;DHT22;23441;50.856;6.076;2024-02-26T10:09:38;5.70;99.90
37594;DHT22;23441;50.856;6.076;2024-02-26T10:12:24;5.80;99.90
37594;DHT22;23441;50.856;6.076;2024-02-26T10:15:11;5.80;99.90
37594;DHT22;23441;50.856;6.076;2024-02-26T10:17:57;5.70;99.90
37594;DHT22;23441;50.856;6.076;2024-02-26T10:20:59;5.70;99.90
37594;DHT22;23441;50.856;6.076;2024-02-26T10:23:46;5.70;99.90
37594;DHT22;23441;50.856;6.076;2024-02-26T10:26:33;5.70;99.90
37594;DHT22;23441;50.856;6.076;2024-02-26T10:29:20;5.70;99.90
37594;DHT22;23441;50.856;6.076;2024-02-26T10:32:06;5.70;99.90
37594;DHT22;23441;50.856;6.076;2024-02-26T10:34:56;5.90;99.90
37594;DHT22;23441;50.856;6.076;2024-02-26T10:37:42;6.00;99.90
37594;DHT22;23441;50.856;6.076;2024-02-26T10:40:28;6.00;99.90
37594;DHT22;23441;50.856;6.076;2024-02-26T10:43:14;6.10;99.90
37594;DHT22;23441;50.856;6.076;2024-02-26T10:46:01;6.20;99.90
37594;DHT22;23441;50.856;6.076;2024-02-26T10:48:51;6.20;99.90
37594;DHT22;23441;50.856;6.076;2024-02-26T10:51:38;6.30;99.90
37594;DHT22;23441;50.856;6.076;2024-02-26T10:54:26;6.20;99.90
37594;DHT22;23441;50.856;6.076;2024-02-26T10:57:16;6.30;99.90
37594;DHT22;23441;50.856;6.076;2024-02-26T11:00:04;6.20;99.90
37594;DHT22;23441;50.856;6.076;2024-02-26T11:02:51;6.30;99.90
37594;DHT22;23441;50.856;6.076;2024-02-26T11:05:39;6.50;99.90
37594;DHT22;23441;50.856;6.076;2024-02-26T11:08:27;6.60;99.90
37594;DHT22;23441;50.856;6.076;2024-02-26T11:11:14;6.60;99.90
37594;DHT22;23441;50.856;6.076;2024-02-26T11:14:01;6.60;99.90
37594;DHT22;23441;50.856;6.076;2024-02-26T11:16:47;6.60;99.90
37594;DHT22;23441;50.856;6.076;2024-02-26T11:19:36;6.40;99.90
37594;DHT22;23441;50.856;6.076;2024-02-26T11:22:22;6.40;99.90
37594;DHT22;23441;50.856;6.076;2024-02-26T11:25:08;6.30;99.90
37594;DHT22;23441;50.856;6.076;2024-02-26T11:27:58;6.40;99.90
37594;DHT22;23441;50.856;6.076;2024-02-26T11:30:48;6.40;99.90
37594;DHT22;23441;50.856;6.076;2024-02-26T11:33:35;6.30;99.90
37594;DHT22;23441;50.856;6.076;2024-02-26T11:36:23;6.30;99.90
37594;DHT22;23441;50.856;6.076;2024-02-26T11:39:11;6.30;99.90
37594;DHT22;23441;50.856;6.076;2024-02-26T11:42:06;6.30;99.90
37594;DHT22;23441;50.856;6.076;2024-02-26T11:44:53;6.20;99.90
37594;DHT22;23441;50.856;6.076;2024-02-26T11:47:39;6.30;99.90
37594;DHT22;23441;50.856;6.076;2024-02-26T11:50:36;6.30;99.90
37594;DHT22;23441;50.856;6.076;2024-02-26T11:59:38;6.20;99.90
37594;DHT22;23441;50.856;6.076;2024-02-26T12:02:43;6.20;99.90
37594;DHT22;23441;50.856;6.076;2024-02-26T12:05:32;6.20;99.90
37594;DHT22;23441;50.856;6.076;2024-02-26T12:08:21;6.20;99.90
37594;DHT22;23441;50.856;6.076;2024-02-26T12:11:14;6.10;99.90
37594;DHT22;23441;50.856;6.076;2024-02-26T12:14:01;6.20;99.90
37594;DHT22;23441;50.856;6.076;2024-02-26T12:16:47;6.20;99.90
37594;DHT22;23441;50.856;6.076;2024-02-26T12:19:36;6.20;99.90
37594;DHT22;23441;50.856;6.076;2024-02-26T12:22:23;6.20;99.90
37594;DHT22;23441;50.856;6.076;2024-02-26T12:25:10;6.20;99.90
37594;DHT22;23441;50.856;6.076;2024-02-26T12:27:57;6.20;99.90
37594;DHT22;23441;50.856;6.076;2024-02-26T12:30:43;6.10;99.90
37594;DHT22;23441;50.856;6.076;2024-02-26T12:33:30;6.10;99.90
37594;DHT22;23441;50.856;6.076;2024-02-26T12:36:16;6.10;99.90
37594;DHT22;23441;50.856;6.076;2024-02-26T12:39:03;6.10;99.90
37594;DHT22;23441;50.856;6.076;2024-02-26T12:41:52;6.10;99.90
37594;DHT22;23441;50.856;6.076;2024-02-26T12:44:38;6.10;99.90
37594;DHT22;23441;50.856;6.076;2024-02-26T12:47:23;6.10;99.90
37594;DHT22;23441;50.856;6.076;2024-02-26T12:50:10;6.10;99.90
37594;DHT22;23441;50.856;6.076;2024-02-26T12:52:56;6.00;99.90
37594;DHT22;23441;50.856;6.076;2024-02-26T12:55:42;6.10;99.90
37594;DHT22;23441;50.856;6.076;2024-02-26T12:58:29;6.00;99.90
37594;DHT22;23441;50.856;6.076;2024-02-26T13:01:19;6.00;99.90
37594;DHT22;23441;50.856;6.076;2024-02-26T13:04:06;6.00;99.90
37594;DHT22;23441;50.856;6.076;2024-02-26T13:06:52;6.10;99.90
37594;DHT22;23441;50.856;6.076;2024-02-26T13:09:38;6.10;99.90
37594;DHT22;23441;50.856;6.076;2024-02-26T13:12:24;6.10;99.90
37594;DHT22;23441;50.856;6.076;2024-02-26T13:15:15;6.00;99.90
37594;DHT22;23441;50.856;6.076;2024-02-26T13:18:18;6.10;99.90
37594;DHT22;23441;50.856;6.076;2024-02-26T13:21:12;6.00;99.90
37594;DHT22;23441;50.856;6.076;2024-02-26T13:23:58;6.10;99.90
37594;DHT22;23441;50.856;6.076;2024-02-26T13:26:44;6.10;99.90
37594;DHT22;23441;50.856;6.076;2024-02-26T13:29:30;6.20;99.90
37594;DHT22;23441;50.856;6.076;2024-02-26T13:32:17;6.10;99.90
37594;DHT22;23441;50.856;6.076;2024-02-26T13:35:10;6.20;99.90
37594;DHT22;23441;50.856;6.076;2024-02-26T13:37:57;6.20;99.90
37594;DHT22;23441;50.856;6.076;2024-02-26T13:40:42;6.20;99.90
37594;DHT22;23441;50.856;6.076;2024-02-26T13:43:28;6.30;99.90
37594;DHT22;23441;50.856;6.076;2024-02-26T13:46:15;6.30;99.90
37594;DHT22;23441;50.856;6.076;2024-02-26T13:49:01;6.20;99.90
37594;DHT22;23441;50.856;6.076;2024-02-26T13:51:47;6.30;99.90
37594;DHT22;23441;50.856;6.076;2024-02-26T13:54:33;6.20;99.90
37594;DHT22;23441;50.856;6.076;2024-02-26T13:57:20;6.40;99.90
37594;DHT22;23441;50.856;6.076;2024-02-26T14:00:08;6.40;99.90
37594;DHT22;23441;50.856;6.076;2024-02-26T14:02:55;6.30;99.90
37594;DHT22;23441;50.856;6.076;2024-02-26T14:05:41;6.20;99.90
37594;DHT22;23441;50.856;6.076;2024-02-26T14:08:27;6.20;99.90
37594;DHT22;23441;50.856;6.076;2024-02-26T14:11:13;6.30;99.90
37594;DHT22;23441;50.856;6.076;2024-02-26T14:13:59;6.30;99.90
37594;DHT22;23441;50.856;6.076;2024-02-26T14:16:45;6.30;99.90
37594;DHT22;23441;50.856;6.076;2024-02-26T14:19:31;6.30;99.90
37594;DHT22;23441;50.856;6.076;2024-02-26T14:22:17;6.20;99.90
37594;DHT22;23441;50.856;6.076;2024-02-26T14:25:03;6.20;99.90
37594;DHT22;23441;50.856;6.076;2024-02-26T14:27:50;6.00;99.90
37594;DHT22;23441;50.856;6.076;2024-02-26T14:30:35;6.00;99.90
37594;DHT22;23441;50.856;6.076;2024-02-26T14:33:21;6.00;99.90
37594;DHT22;23441;50.856;6.076;2024-02-26T14:36:08;6.00;99.90
37594;DHT22;23441;50.856;6.076;2024-02-26T14:38:54;6.00;99.90
37594;DHT22;23441;50.856;6.076;2024-02-26T14:41:40;6.10;99.90
37594;DHT22;23441;50.856;6.076;2024-02-26T14:44:26;6.00;99.90
37594;DHT22;23441;50.856;6.076;2024-02-26T14:47:12;6.00;99.90
37594;DHT22;23441;50.856;6.076;2024-02-26T14:49:58;6.00;99.90
37594;DHT22;23441;50.856;6.076;2024-02-26T14:52:44;6.00;99.90
37594;DHT22;23441;50.856;6.076;2024-02-26T14:55:30;6.00;99.90
37594;DHT22;23441;50.856;6.076;2024-02-26T14:58:16;6.10;99.90
37594;DHT22;23441;50.856;6.076;2024-02-26T15:01:02;6.00;99.90
37594;DHT22;23441;50.856;6.076;2024-02-26T15:03:49;6.00;99.90
37594;DHT22;23441;50.856;6.076;2024-02-26T15:06:34;6.00;99.90
37594;DHT22;23441;50.856;6.076;2024-02-26T15:09:23;6.00;99.90
37594;DHT22;23441;50.856;6.076;2024-02-26T15:12:10;6.00;99.90
37594;DHT22;23441;50.856;6.076;2024-02-26T15:14:56;6.00;99.90
37594;DHT22;23441;50.856;6.076;2024-02-26T15:17:42;6.00;99.90
37594;DHT22;23441;50.856;6.076;2024-02-26T15:20:29;5.90;99.90
37594;DHT22;23441;50.856;6.076;2024-02-26T15:23:16;5.80;99.90
37594;DHT22;23441;50.856;6.076;2024-02-26T15:26:03;5.90;99.90
37594;DHT22;23441;50.856;6.076;2024-02-26T15:28:49;5.90;99.90
37594;DHT22;23441;50.856;6.076;2024-02-26T15:31:36;5.80;99.90
37594;DHT22;23441;50.856;6.076;2024-02-26T15:34:22;5.80;99.90
37594;DHT22;23441;50.856;6.076;2024-02-26T15:37:07;5.90;99.90
37594;DHT22;23441;50.856;6.076;2024-02-26T15:39:53;5.80;99.90
37594;DHT22;23441;50.856;6.076;2024-02-26T15:42:39;5.80;99.90
37594;DHT22;23441;50.856;6.076;2024-02-26T15:45:25;5.90;99.90
37594;DHT22;23441;50.856;6.076;2024-02-26T15:48:11;5.90;99.90
37594;DHT22;23441;50.856;6.076;2024-02-26T15:50:57;5.90;99.90
37594;DHT22;23441;50.856;6.076;2024-02-26T15:53:43;5.90;99.90
37594;DHT22;23441;50.856;6.076;2024-02-26T15:56:29;5.80;99.90
37594;DHT22;23441;50.856;6.076;2024-02-26T15:59:16;5.90;99.90
37594;DHT22;23441;50.856;6.076;2024-02-26T16:02:02;5.90;99.90
37594;DHT22;23441;50.856;6.076;2024-02-26T16:04:48;5.80;99.90
37594;DHT22;23441;50.856;6.076;2024-02-26T16:07:48;5.90;99.90
37594;DHT22;23441;50.856;6.076;2024-02-26T16:10:35;5.90;99.90
37594;DHT22;23441;50.856;6.076;2024-02-26T16:13:21;5.90;99.90
37594;DHT22;23441;50.856;6.076;2024-02-26T16:16:18;5.90;99.90
37594;DHT22;23441;50.856;6.076;2024-02-26T16:19:08;5.90;99.90
37594;DHT22;23441;50.856;6.076;2024-02-26T16:21:54;5.90;99.90
37594;DHT22;23441;50.856;6.076;2024-02-26T16:24:40;5.80;99.90
37594;DHT22;23441;50.856;6.076;2024-02-26T16:27:26;5.80;99.90
37594;DHT22;23441;50.856;6.076;2024-02-26T16:30:13;5.80;99.90
37594;DHT22;23441;50.856;6.076;2024-02-26T16:32:58;5.80;99.90
37594;DHT22;23441;50.856;6.076;2024-02-26T16:35:43;5.80;99.90
37594;DHT22;23441;50.856;6.076;2024-02-26T16:38:29;5.80;99.90
37594;DHT22;23441;50.856;6.076;2024-02-26T16:41:15;5.80;99.90
37594;DHT22;23441;50.856;6.076;2024-02-26T16:44:01;5.80;99.90
37594;DHT22;23441;50.856;6.076;2024-02-26T16:46:48;5.80;99.90
37594;DHT22;23441;50.856;6.076;2024-02-26T16:49:35;5.80;99.90
37594;DHT22;23441;50.856;6.076;2024-02-26T16:52:22;5.80;99.90
37594;DHT22;23441;50.856;6.076;2024-02-26T16:55:08;5.80;99.90
37594;DHT22;23441;50.856;6.076;2024-02-26T16:57:55;5.80;99.90
37594;DHT22;23441;50.856;6.076;2024-02-26T17:00:41;5.70;99.90
37594;DHT22;23441;50.856;6.076;2024-02-26T17:03:28;5.80;99.90
37594;DHT22;23441;50.856;6.076;2024-02-26T17:06:14;5.70;99.90
37594;DHT22;23441;50.856;6.076;2024-02-26T17:09:02;5.70;99.90
37594;DHT22;23441;50.856;6.076;2024-02-26T17:11:50;5.70;99.90
37594;DHT22;23441;50.856;6.076;2024-02-26T17:14:39;5.70;99.90
37594;DHT22;23441;50.856;6.076;2024-02-26T17:17:25;5.60;99.90
37594;DHT22;23441;50.856;6.076;2024-02-26T17:20:11;5.60;99.90
37594;DHT22;23441;50.856;6.076;2024-02-26T17:22:57;5.60;99.90
37594;DHT22;23441;50.856;6.076;2024-02-26T17:25:43;5.60;99.90
37594;DHT22;23441;50.856;6.076;2024-02-26T17:28:29;5.60;99.90
37594;DHT22;23441;50.856;6.076;2024-02-26T17:31:15;5.60;99.90
37594;DHT22;23441;50.856;6.076;2024-02-26T17:34:03;5.50;99.90
37594;DHT22;23441;50.856;6.076;2024-02-26T17:36:49;5.50;99.90
37594;DHT22;23441;50.856;6.076;2024-02-26T17:39:35;5.50;99.90
37594;DHT22;23441;50.856;6.076;2024-02-26T17:42:21;5.50;99.90
37594;DHT22;23441;50.856;6.076;2024-02-26T17:45:08;5.50;99.90
37594;DHT22;23441;50.856;6.076;2024-02-26T17:47:55;5.40;99.90
37594;DHT22;23441;50.856;6.076;2024-02-26T17:50:41;5.40;99.90
37594;DHT22;23441;50.856;6.076;2024-02-26T17:53:27;5.50;99.90
37594;DHT22;23441;50.856;6.076;2024-02-26T17:56:13;5.40;99.90